Time;durP1;ratioP1;P1;durP2;ratioP2;P2;SDS_P1;SDS_P2;PMS_P1;PMS_P2;Temp;Humidity;BMP_temperature;BMP_pressure;BME280_temperature;BME280_humidity;BME280_pressure;Samples;Min_cycle;Max_cycle;Signal;HPM_P1;HPM_P2
2023/03/13 00:00:20;;;;;;;;;;;9.40;99.90;;;;;;4900868;29;924;-59
2023/03/13 00:02:46;;;;;;;;;;;9.30;99.90;;;;;;4898163;29;1177;-58
2023/03/13 00:05:13;;;;;;;;;;;9.30;99.90;;;;;;4920476;29;773;-59
2023/03/13 00:07:39;;;;;;;;;;;9.40;99.90;;;;;;4903517;29;1143;-61
2023/03/13 00:10:05;;;;;;;;;;;9.30;99.90;;;;;;4919865;29;1281;-60
2023/03/13 00:12:31;;;;;;;;;;;9.40;99.90;;;;;;4908244;29;1201;-59
2023/03/13 00:14:58;;;;;;;;;;;9.40;99.90;;;;;;4901093;29;1972;-60
2023/03/13 00:17:24;;;;;;;;;;;9.30;99.90;;;;;;4901303;29;734;-61
2023/03/13 00:19:50;;;;;;;;;;;9.30;99.90;;;;;;4900715;29;1188;-58
2023/03/13 00:22:16;;;;;;;;;;;9.30;99.90;;;;;;4893571;29;1106;-60
2023/03/13 00:24:44;;;;;;;;;;;9.30;99.90;;;;;;4920020;29;1062;-60
2023/03/13 00:27:10;;;;;;;;;;;9.30;99.90;;;;;;4903020;29;1292;-62
2023/03/13 00:29:40;;;;;;;;;;;9.20;99.90;;;;;;4903178;29;1103;-61
2023/03/13 00:32:06;;;;;;;;;;;9.30;99.90;;;;;;4910994;29;1200;-60
2023/03/13 00:34:32;;;;;;;;;;;9.20;99.90;;;;;;4900988;29;985;-60
2023/03/13 00:36:58;;;;;;;;;;;9.40;99.90;;;;;;4900950;29;1970;-60
2023/03/13 00:39:25;;;;;;;;;;;9.30;99.90;;;;;;4900817;29;980;-60
2023/03/13 00:41:51;;;;;;;;;;;9.20;99.90;;;;;;4889619;29;1224;-59
2023/03/13 00:44:17;;;;;;;;;;;9.30;99.90;;;;;;4919501;29;1050;-61
2023/03/13 00:46:43;;;;;;;;;;;9.10;99.90;;;;;;4919436;29;1007;-60
2023/03/13 00:49:09;;;;;;;;;;;9.10;99.90;;;;;;4919523;29;1082;-62
2023/03/13 00:51:35;;;;;;;;;;;9.30;99.90;;;;;;4898033;29;1464;-61
2023/03/13 00:54:03;;;;;;;;;;;9.20;99.90;;;;;;4900646;29;995;-61
2023/03/13 00:56:29;;;;;;;;;;;9.20;99.90;;;;;;4900036;29;1903;-61
2023/03/13 00:58:56;;;;;;;;;;;9.20;99.90;;;;;;4883652;29;1357;-61
2023/03/13 01:01:23;;;;;;;;;;;9.10;99.90;;;;;;4885399;29;1852;-62
2023/03/13 01:03:54;;;;;;;;;;;9.30;99.90;;;;;;4902616;29;1210;-60
2023/03/13 01:06:21;;;;;;;;;;;9.30;99.90;;;;;;4887067;29;1569;-60
2023/03/13 01:08:48;;;;;;;;;;;9.30;99.90;;;;;;4902115;29;1305;-61
2023/03/13 01:11:15;;;;;;;;;;;9.20;99.90;;;;;;4916921;29;1213;-61
2023/03/13 01:13:44;;;;;;;;;;;9.30;99.90;;;;;;4883602;29;1198;-61
2023/03/13 01:16:12;;;;;;;;;;;9.30;99.90;;;;;;4899789;29;1907;-61
2023/03/13 01:18:39;;;;;;;;;;;9.30;99.90;;;;;;4883539;29;1060;-61
2023/03/13 01:21:05;;;;;;;;;;;9.30;99.90;;;;;;4883605;29;1233;-61
2023/03/13 01:23:32;;;;;;;;;;;9.30;99.90;;;;;;4901938;29;1244;-59
2023/03/13 01:25:58;;;;;;;;;;;9.10;99.90;;;;;;4919560;29;1023;-61
2023/03/13 01:28:25;;;;;;;;;;;9.10;99.90;;;;;;4919029;29;1003;-62
2023/03/13 01:30:51;;;;;;;;;;;9.10;99.90;;;;;;4901847;29;826;-61
2023/03/13 01:33:18;;;;;;;;;;;9.20;99.90;;;;;;4901527;29;1231;-61
2023/03/13 01:35:44;;;;;;;;;;;9.10;99.90;;;;;;4899709;29;1903;-60
2023/03/13 01:38:10;;;;;;;;;;;9.20;99.90;;;;;;4883316;29;1021;-60
2023/03/13 01:40:46;;;;;;;;;;;9.10;99.90;;;;;;4899493;29;984;-60
2023/03/13 01:43:18;;;;;;;;;;;9.10;99.90;;;;;;4898858;29;2544;-60
2023/03/13 01:45:50;;;;;;;;;;;9.10;99.90;;;;;;4901883;29;1131;-63
2023/03/13 01:48:16;;;;;;;;;;;9.00;99.90;;;;;;4918429;29;1000;-62
2023/03/13 01:50:42;;;;;;;;;;;9.00;99.90;;;;;;4901050;29;1338;-62
2023/03/13 01:53:09;;;;;;;;;;;9.10;99.90;;;;;;4885862;29;1173;-64
2023/03/13 01:55:35;;;;;;;;;;;9.20;99.90;;;;;;4899274;29;1907;-62
2023/03/13 01:58:02;;;;;;;;;;;9.10;99.90;;;;;;4882764;29;1414;-63
2023/03/13 02:00:30;;;;;;;;;;;9.00;99.90;;;;;;4882005;29;925;-60
2023/03/13 02:02:58;;;;;;;;;;;9.00;99.90;;;;;;4896405;29;1185;-61
2023/03/13 02:05:26;;;;;;;;;;;9.00;99.90;;;;;;4918282;29;1022;-62
2023/03/13 02:07:59;;;;;;;;;;;8.80;99.90;;;;;;4918129;29;920;-60
2023/03/13 02:10:26;;;;;;;;;;;8.80;99.90;;;;;;4900881;29;1232;-63
2023/03/13 02:12:53;;;;;;;;;;;9.00;99.90;;;;;;4904161;29;1176;-61
2023/03/13 02:15:21;;;;;;;;;;;9.00;99.90;;;;;;4908382;29;1981;-62
2023/03/13 02:17:48;;;;;;;;;;;9.00;99.90;;;;;;4901039;29;1084;-62
2023/03/13 02:20:16;;;;;;;;;;;8.90;99.90;;;;;;4917433;29;971;-60
2023/03/13 02:23:01;;;;;;;;;;;9.10;99.90;;;;;;4904868;29;1189;-63
2023/03/13 02:25:44;;;;;;;;;;;8.80;99.90;;;;;;4899274;29;977;-60
2023/03/13 02:28:16;;;;;;;;;;;9.00;99.90;;;;;;4899054;29;794;-60
2023/03/13 02:30:43;;;;;;;;;;;9.00;99.90;;;;;;4898402;29;838;-60
2023/03/13 02:33:10;;;;;;;;;;;9.10;99.90;;;;;;4914290;29;1145;-62
2023/03/13 02:35:36;;;;;;;;;;;8.90;99.90;;;;;;4917951;29;1910;-62
2023/03/13 02:38:04;;;;;;;;;;;9.10;99.90;;;;;;4901088;29;963;-62
2023/03/13 02:40:36;;;;;;;;;;;9.00;99.90;;;;;;4917434;29;1068;-60
2023/03/13 02:43:05;;;;;;;;;;;9.00;99.90;;;;;;4886142;29;1212;-62
2023/03/13 02:45:31;;;;;;;;;;;9.20;99.90;;;;;;4898541;29;1008;-60
2023/03/13 02:47:57;;;;;;;;;;;9.00;99.90;;;;;;4898490;29;1097;-62
2023/03/13 02:50:23;;;;;;;;;;;9.10;99.90;;;;;;4898216;29;1028;-61
2023/03/13 02:52:52;;;;;;;;;;;9.30;99.90;;;;;;4894295;29;1161;-61
2023/03/13 02:55:24;;;;;;;;;;;9.10;99.90;;;;;;4917272;29;1177;-59
2023/03/13 02:57:50;;;;;;;;;;;9.10;99.90;;;;;;4917582;29;929;-60
2023/03/13 03:00:17;;;;;;;;;;;9.40;99.90;;;;;;4916890;29;1004;-60
2023/03/13 03:02:43;;;;;;;;;;;9.20;99.90;;;;;;4905224;29;1235;-60
2023/03/13 03:05:10;;;;;;;;;;;9.30;99.90;;;;;;4898405;29;1055;-61
2023/03/13 03:07:36;;;;;;;;;;;9.30;99.90;;;;;;4881922;29;1412;-60
2023/03/13 03:10:03;;;;;;;;;;;9.60;99.90;;;;;;4897991;29;777;-60
2023/03/13 03:12:29;;;;;;;;;;;9.50;99.90;;;;;;4908307;29;1208;-58
2023/03/13 03:14:56;;;;;;;;;;;9.60;99.90;;;;;;4917363;29;1043;-60
2023/03/13 03:17:22;;;;;;;;;;;9.60;99.90;;;;;;4917344;29;1899;-60
2023/03/13 03:19:48;;;;;;;;;;;9.60;99.90;;;;;;4917027;29;1012;-61
2023/03/13 03:22:14;;;;;;;;;;;9.70;99.90;;;;;;4908997;29;1205;-60
2023/03/13 03:24:43;;;;;;;;;;;9.70;99.90;;;;;;4898403;29;850;-61
2023/03/13 03:27:09;;;;;;;;;;;9.70;99.90;;;;;;4898281;29;993;-60
2023/03/13 03:29:36;;;;;;;;;;;9.70;99.90;;;;;;4898161;29;1000;-59
2023/03/13 03:32:02;;;;;;;;;;;9.80;99.90;;;;;;4904065;29;1192;-60
2023/03/13 03:34:28;;;;;;;;;;;9.80;99.90;;;;;;4904196;29;1257;-60
2023/03/13 03:36:54;;;;;;;;;;;10.10;99.90;;;;;;4920865;29;1915;-60
2023/03/13 03:39:20;;;;;;;;;;;10.10;99.90;;;;;;4920965;29;1000;-60
2023/03/13 03:41:46;;;;;;;;;;;10.20;99.90;;;;;;4916057;29;1172;-61
2023/03/13 03:44:13;;;;;;;;;;;10.20;99.90;;;;;;4902683;29;1145;-58
2023/03/13 03:46:39;;;;;;;;;;;10.00;99.90;;;;;;4901757;29;805;-60
2023/03/13 03:49:05;;;;;;;;;;;10.20;99.90;;;;;;4901870;29;1051;-58
2023/03/13 03:51:31;;;;;;;;;;;10.30;99.90;;;;;;4903373;29;1145;-59
2023/03/13 03:53:57;;;;;;;;;;;10.10;99.90;;;;;;4904038;29;1019;-61
2023/03/13 03:56:23;;;;;;;;;;;10.40;99.90;;;;;;4911441;29;1903;-62
2023/03/13 03:58:50;;;;;;;;;;;10.20;99.90;;;;;;4920612;29;1010;-59
2023/03/13 04:01:16;;;;;;;;;;;10.40;99.90;;;;;;4919360;29;1106;-61
2023/03/13 04:03:42;;;;;;;;;;;10.20;99.90;;;;;;4900690;29;1311;-59
2023/03/13 04:06:08;;;;;;;;;;;10.50;99.90;;;;;;4901586;29;846;-60
2023/03/13 04:08:35;;;;;;;;;;;10.50;99.90;;;;;;4901399;29;1077;-60
2023/03/13 04:11:01;;;;;;;;;;;10.30;99.90;;;;;;4900983;29;1008;-58
2023/03/13 04:13:27;;;;;;;;;;;10.40;99.90;;;;;;4918102;29;1196;-60
2023/03/13 04:15:53;;;;;;;;;;;10.40;99.90;;;;;;4920371;29;1935;-58
2023/03/13 04:18:20;;;;;;;;;;;10.50;99.90;;;;;;4920298;29;1193;-59
2023/03/13 04:20:46;;;;;;;;;;;10.60;99.90;;;;;;4918656;29;1506;-59
2023/03/13 04:23:12;;;;;;;;;;;10.60;99.90;;;;;;4904933;29;1199;-59
2023/03/13 04:25:38;;;;;;;;;;;10.60;99.90;;;;;;4900370;29;822;-61
2023/03/13 04:28:04;;;;;;;;;;;10.60;99.90;;;;;;4901409;29;758;-59
2023/03/13 04:30:30;;;;;;;;;;;10.60;99.90;;;;;;4900575;29;826;-62
2023/03/13 04:32:57;;;;;;;;;;;10.80;99.90;;;;;;4912952;29;1360;-62
2023/03/13 04:35:23;;;;;;;;;;;10.90;99.90;;;;;;4919681;29;1454;-59
2023/03/13 04:37:49;;;;;;;;;;;10.80;99.90;;;;;;4919493;29;1906;-59
2023/03/13 04:40:15;;;;;;;;;;;11.10;99.90;;;;;;4919573;29;984;-59
2023/03/13 04:42:41;;;;;;;;;;;11.10;99.90;;;;;;4908688;29;1160;-60
2023/03/13 04:45:09;;;;;;;;;;;10.90;99.90;;;;;;4899325;29;1421;-62
2023/03/13 04:47:36;;;;;;;;;;;10.90;99.90;;;;;;4899740;29;1591;-61
2023/03/13 04:50:02;;;;;;;;;;;11.10;99.90;;;;;;4900252;29;992;-60
2023/03/13 04:52:28;;;;;;;;;;;10.90;99.90;;;;;;4909326;29;1153;-62
2023/03/13 04:54:54;;;;;;;;;;;11.20;99.90;;;;;;4919559;29;996;-60
2023/03/13 04:57:20;;;;;;;;;;;11.30;99.90;;;;;;4919215;29;1899;-58
2023/03/13 04:59:47;;;;;;;;;;;11.00;99.90;;;;;;4919225;29;955;-61
2023/03/13 05:02:13;;;;;;;;;;;11.20;99.90;;;;;;4912364;29;1165;-60
2023/03/13 05:04:39;;;;;;;;;;;11.10;99.90;;;;;;4901137;29;972;-61
2023/03/13 05:07:05;;;;;;;;;;;11.00;99.90;;;;;;4901000;29;995;-59
2023/03/13 05:09:31;;;;;;;;;;;11.00;99.90;;;;;;4900437;29;1004;-60
2023/03/13 05:11:57;;;;;;;;;;;11.10;99.90;;;;;;4904780;29;1145;-59
2023/03/13 05:14:24;;;;;;;;;;;11.20;99.90;;;;;;4919157;29;1054;-60
2023/03/13 05:16:51;;;;;;;;;;;11.30;99.90;;;;;;4919902;29;1911;-61
2023/03/13 05:19:17;;;;;;;;;;;11.30;99.90;;;;;;4919351;29;1004;-61
2023/03/13 05:21:44;;;;;;;;;;;11.40;99.90;;;;;;4915430;29;1153;-60
2023/03/13 05:24:12;;;;;;;;;;;11.30;99.90;;;;;;4899737;29;1056;-61
2023/03/13 05:26:38;;;;;;;;;;;11.30;99.90;;;;;;4900405;29;992;-58
2023/03/13 05:29:04;;;;;;;;;;;11.40;99.90;;;;;;4900018;29;964;-60
2023/03/13 05:31:30;;;;;;;;;;;11.40;99.90;;;;;;4900324;29;1169;-59
2023/03/13 05:33:56;;;;;;;;;;;11.30;99.90;;;;;;4906794;29;1081;-61
2023/03/13 05:36:23;;;;;;;;;;;11.30;99.90;;;;;;4899664;29;1911;-60
2023/03/13 05:38:49;;;;;;;;;;;11.20;99.90;;;;;;4899585;29;778;-62
2023/03/13 05:41:15;;;;;;;;;;;11.40;99.90;;;;;;4882603;29;1494;-61
2023/03/13 05:43:41;;;;;;;;;;;11.50;99.90;;;;;;4917710;29;1200;-60
2023/03/13 05:46:07;;;;;;;;;;;11.50;99.90;;;;;;4918652;29;1003;-60
2023/03/13 05:48:33;;;;;;;;;;;11.40;99.90;;;;;;4918499;29;960;-58
2023/03/13 05:51:00;;;;;;;;;;;11.60;99.90;;;;;;4901167;29;1084;-58
2023/03/13 05:53:26;;;;;;;;;;;11.60;99.90;;;;;;4904496;29;1153;-59
2023/03/13 05:55:52;;;;;;;;;;;11.60;99.90;;;;;;4908515;29;1321;-61
2023/03/13 05:58:18;;;;;;;;;;;11.50;99.90;;;;;;4908178;29;1911;-61
2023/03/13 06:00:44;;;;;;;;;;;11.60;99.90;;;;;;4910021;29;1317;-60
2023/03/13 06:03:11;;;;;;;;;;;11.70;99.90;;;;;;4915915;29;1367;-60
2023/03/13 06:05:37;;;;;;;;;;;11.60;99.90;;;;;;4917601;29;1369;-61
2023/03/13 06:08:03;;;;;;;;;;;11.80;99.90;;;;;;4900334;29;1405;-61
2023/03/13 06:10:30;;;;;;;;;;;11.80;99.90;;;;;;4916462;29;1398;-60
2023/03/13 06:12:56;;;;;;;;;;;11.70;99.90;;;;;;4905503;29;1363;-61
2023/03/13 06:15:24;;;;;;;;;;;11.60;99.90;;;;;;4905104;29;1151;-60
2023/03/13 06:17:51;;;;;;;;;;;11.90;99.90;;;;;;4899272;29;1911;-59
2023/03/13 06:20:17;;;;;;;;;;;11.80;99.90;;;;;;4900510;29;1361;-60
2023/03/13 06:22:43;;;;;;;;;;;11.80;99.90;;;;;;4907376;29;1200;-59
2023/03/13 06:25:12;;;;;;;;;;;11.90;99.90;;;;;;4888023;29;1652;-62
2023/03/13 06:27:39;;;;;;;;;;;11.90;99.90;;;;;;4917980;29;892;-61
2023/03/13 06:30:07;;;;;;;;;;;11.90;99.90;;;;;;4917365;29;743;-62
2023/03/13 06:32:33;;;;;;;;;;;12.10;99.90;;;;;;4917294;29;1157;-61
2023/03/13 06:34:59;;;;;;;;;;;11.90;99.90;;;;;;4917427;29;973;-60
2023/03/13 06:37:25;;;;;;;;;;;12.00;99.90;;;;;;4917661;29;1910;-60
2023/03/13 06:39:51;;;;;;;;;;;11.90;99.90;;;;;;4917179;29;1031;-59
2023/03/13 06:42:18;;;;;;;;;;;12.00;99.90;;;;;;4910512;29;1211;-61
2023/03/13 06:44:44;;;;;;;;;;;12.10;99.90;;;;;;4898637;29;839;-60
2023/03/13 06:47:10;;;;;;;;;;;12.10;99.90;;;;;;4898660;29;993;-61
2023/03/13 06:49:36;;;;;;;;;;;12.20;99.90;;;;;;4898441;29;980;-60
2023/03/13 06:52:02;;;;;;;;;;;12.10;99.90;;;;;;4903173;29;1145;-62
2023/03/13 06:54:29;;;;;;;;;;;12.10;99.90;;;;;;4917467;29;927;-61
2023/03/13 06:56:55;;;;;;;;;;;12.30;99.90;;;;;;4917279;29;1911;-61
2023/03/13 06:59:21;;;;;;;;;;;12.20;99.90;;;;;;4916671;29;896;-56
2023/03/13 07:01:47;;;;;;;;;;;12.20;99.90;;;;;;4914288;29;1132;-61
2023/03/13 07:04:13;;;;;;;;;;;12.40;99.90;;;;;;4898555;29;1000;-61
2023/03/13 07:06:39;;;;;;;;;;;12.30;99.90;;;;;;4898067;29;1449;-59
2023/03/13 07:09:05;;;;;;;;;;;12.40;99.90;;;;;;4897975;29;992;-60
2023/03/13 07:11:32;;;;;;;;;;;12.40;99.90;;;;;;4897908;29;1169;-60
2023/03/13 07:14:00;;;;;;;;;;;12.40;99.90;;;;;;4916993;29;1067;-61
2023/03/13 07:16:27;;;;;;;;;;;12.30;99.90;;;;;;4913676;29;1911;-59
2023/03/13 07:18:53;;;;;;;;;;;12.30;99.90;;;;;;4906487;29;1305;-58
2023/03/13 07:21:19;;;;;;;;;;;12.40;99.90;;;;;;4874698;29;1277;-60
2023/03/13 07:23:46;;;;;;;;;;;12.50;99.90;;;;;;4891331;29;1174;-61
2023/03/13 07:26:13;;;;;;;;;;;12.40;99.90;;;;;;4905752;29;1246;-60
2023/03/13 07:28:40;;;;;;;;;;;12.50;99.90;;;;;;4906293;29;1253;-61
2023/03/13 07:31:10;;;;;;;;;;;12.30;99.90;;;;;;4898136;29;1391;-61
2023/03/13 07:33:37;;;;;;;;;;;12.40;99.90;;;;;;4915197;29;1169;-60
2023/03/13 07:36:03;;;;;;;;;;;12.30;99.90;;;;;;4917241;29;1058;-58
2023/03/13 07:38:29;;;;;;;;;;;12.50;99.90;;;;;;4916632;29;1974;-58
2023/03/13 07:40:56;;;;;;;;;;;12.50;99.90;;;;;;4917308;29;1035;-61
2023/03/13 07:43:23;;;;;;;;;;;12.50;99.90;;;;;;4901685;29;1816;-61
2023/03/13 07:46:09;;;;;;;;;;;12.40;99.90;;;;;;4897865;29;1067;-59
2023/03/13 07:48:37;;;;;;;;;;;12.40;99.90;;;;;;4902442;29;2066;-61
2023/03/13 07:51:04;;;;;;;;;;;12.40;99.90;;;;;;4896438;29;1871;-59
2023/03/13 07:53:30;;;;;;;;;;;12.40;99.90;;;;;;4912670;29;1601;-60
2023/03/13 07:55:58;;;;;;;;;;;12.30;99.90;;;;;;4893361;29;1213;-61
2023/03/13 07:58:25;;;;;;;;;;;12.40;99.90;;;;;;4897658;29;2044;-61
2023/03/13 08:00:52;;;;;;;;;;;12.30;99.90;;;;;;4897655;29;1680;-59
2023/03/13 08:03:18;;;;;;;;;;;12.30;99.90;;;;;;4912028;29;1106;-60
2023/03/13 08:05:44;;;;;;;;;;;12.40;99.90;;;;;;4899937;29;1065;-59
2023/03/13 08:08:11;;;;;;;;;;;12.30;99.90;;;;;;4900966;29;1235;-61
2023/03/13 08:10:37;;;;;;;;;;;12.10;99.90;;;;;;4916736;29;1046;-61
2023/03/13 08:13:03;;;;;;;;;;;12.20;99.90;;;;;;4904491;29;1053;-59
2023/03/13 08:15:29;;;;;;;;;;;12.30;99.90;;;;;;4902295;29;1289;-58
2023/03/13 08:17:55;;;;;;;;;;;12.20;99.90;;;;;;4911609;29;1914;-58
2023/03/13 08:20:22;;;;;;;;;;;12.20;99.90;;;;;;4902963;29;1273;-62
2023/03/13 08:22:51;;;;;;;;;;;12.20;99.90;;;;;;4907615;29;1105;-61
2023/03/13 08:25:17;;;;;;;;;;;12.30;99.90;;;;;;4904751;29;1176;-61
2023/03/13 08:27:43;;;;;;;;;;;12.20;99.90;;;;;;4919282;29;1099;-61
2023/03/13 08:30:09;;;;;;;;;;;12.30;99.90;;;;;;4919811;29;785;-60
2023/03/13 08:32:36;;;;;;;;;;;12.50;99.90;;;;;;4911439;29;1100;-59
2023/03/13 08:35:03;;;;;;;;;;;12.40;99.90;;;;;;4900583;29;1682;-59
2023/03/13 08:37:29;;;;;;;;;;;12.50;99.90;;;;;;4899549;29;1911;-62
2023/03/13 08:39:58;;;;;;;;;;;12.40;99.90;;;;;;4901050;29;999;-60
2023/03/13 08:42:24;;;;;;;;;;;12.60;99.90;;;;;;4907427;29;1180;-61
2023/03/13 08:44:50;;;;;;;;;;;12.70;99.90;;;;;;4919721;29;1074;-62
2023/03/13 08:47:17;;;;;;;;;;;12.70;99.90;;;;;;4919351;29;873;-61
2023/03/13 08:49:43;;;;;;;;;;;12.90;99.90;;;;;;4919573;29;1056;-59
2023/03/13 08:52:09;;;;;;;;;;;13.10;99.90;;;;;;4914547;29;1145;-62
2023/03/13 08:54:36;;;;;;;;;;;13.10;99.90;;;;;;4900752;29;940;-60
2023/03/13 08:57:02;;;;;;;;;;;13.20;99.90;;;;;;4917496;29;1915;-59
2023/03/13 08:59:28;;;;;;;;;;;13.10;99.90;;;;;;4919150;29;1228;-61
2023/03/13 09:01:54;;;;;;;;;;;13.20;99.90;;;;;;4916243;29;1188;-60
2023/03/13 09:04:20;;;;;;;;;;;13.00;99.90;;;;;;4883595;29;1080;-61
2023/03/13 09:06:47;;;;;;;;;;;13.10;99.90;;;;;;4900313;29;984;-61
2023/03/13 09:09:13;;;;;;;;;;;13.10;99.90;;;;;;4900266;29;863;-60
2023/03/13 09:11:39;;;;;;;;;;;13.00;99.90;;;;;;4900982;29;1130;-62
2023/03/13 09:14:06;;;;;;;;;;;13.00;99.90;;;;;;4919285;29;900;-60
2023/03/13 09:16:33;;;;;;;;;;;13.00;99.90;;;;;;4918585;29;773;-59
2023/03/13 09:18:59;;;;;;;;;;;13.10;99.90;;;;;;4918030;29;1910;-60
2023/03/13 09:21:29;;;;;;;;;;;13.00;99.90;;;;;;4902352;29;1260;-60
2023/03/13 09:23:55;;;;;;;;;;;13.10;99.90;;;;;;4903184;29;1276;-60
2023/03/13 09:26:22;;;;;;;;;;;13.10;99.90;;;;;;4899952;29;917;-61
2023/03/13 09:28:48;;;;;;;;;;;13.10;99.90;;;;;;4899514;29;948;-60
2023/03/13 09:31:25;;;;;;;;;;;13.20;99.90;;;;;;4899588;29;1000;-60
2023/03/13 09:33:52;;;;;;;;;;;13.10;99.90;;;;;;4917382;29;1150;-57
2023/03/13 09:36:19;;;;;;;;;;;13.20;99.90;;;;;;4918804;29;1040;-59
2023/03/13 09:38:45;;;;;;;;;;;13.20;99.90;;;;;;4918184;29;1910;-59
2023/03/13 09:41:17;;;;;;;;;;;13.30;99.90;;;;;;4918629;29;905;-61
2023/03/13 09:43:46;;;;;;;;;;;13.30;99.90;;;;;;4901879;29;1152;-62
2023/03/13 09:46:20;;;;;;;;;;;13.40;99.90;;;;;;4899633;29;824;-59
2023/03/13 09:48:49;;;;;;;;;;;13.40;99.90;;;;;;4899240;29;979;-61
2023/03/13 09:51:23;;;;;;;;;;;13.50;99.90;;;;;;4899600;29;969;-60
2023/03/13 09:54:02;;;;;;;;;;;13.60;99.90;;;;;;4916362;29;1236;-61
2023/03/13 09:56:45;;;;;;;;;;;13.90;99.90;;;;;;4904780;29;1174;-62
2023/03/13 09:59:18;;;;;;;;;;;13.90;99.90;;;;;;4899059;29;1969;-61
2023/03/13 10:01:45;;;;;;;;;;;14.10;99.90;;;;;;4899830;29;1221;-60
2023/03/13 10:04:27;;;;;;;;;;;14.20;99.90;;;;;;4918194;29;1052;-61
2023/03/13 10:06:55;;;;;;;;;;;14.20;99.90;;;;;;4917724;29;1008;-62
2023/03/13 10:09:29;;;;;;;;;;;14.30;99.90;;;;;;4918029;29;1021;-61
2023/03/13 10:11:57;;;;;;;;;;;14.30;99.90;;;;;;4915755;29;1221;-61
2023/03/13 10:14:34;;;;;;;;;;;14.30;99.90;;;;;;4899423;29;993;-59
2023/03/13 10:17:12;;;;;;;;;;;14.30;99.90;;;;;;4866787;29;1911;-60
2023/03/13 10:19:41;;;;;;;;;;;14.30;99.90;;;;;;4899229;29;754;-61
2023/03/13 10:22:12;;;;;;;;;;;14.40;99.90;;;;;;4886422;29;1169;-59
2023/03/13 10:24:38;;;;;;;;;;;14.40;99.90;;;;;;4917773;29;989;-61
2023/03/13 10:27:04;;;;;;;;;;;14.40;99.90;;;;;;4917386;29;996;-59
2023/03/13 10:29:30;;;;;;;;;;;14.40;99.90;;;;;;4917787;29;761;-64
2023/03/13 10:31:58;;;;;;;;;;;14.50;99.90;;;;;;4915018;29;1208;-58
2023/03/13 10:34:26;;;;;;;;;;;14.50;99.90;;;;;;4898913;29;976;-59
2023/03/13 10:36:59;;;;;;;;;;;14.60;99.90;;;;;;4898259;29;1012;-59
2023/03/13 10:39:26;;;;;;;;;;;14.60;99.90;;;;;;4898753;29;2035;-60
2023/03/13 10:42:11;;;;;;;;;;;14.60;99.90;;;;;;4899625;29;1097;-59
2023/03/13 10:44:37;;;;;;;;;;;14.60;99.90;;;;;;4917447;29;1050;-59
2023/03/13 10:47:03;;;;;;;;;;;14.60;99.90;;;;;;4917168;29;885;-59
2023/03/13 10:49:30;;;;;;;;;;;14.80;99.90;;;;;;4917415;29;1004;-60
2023/03/13 10:51:58;;;;;;;;;;;15.00;99.90;;;;;;4914822;29;1747;-61
2023/03/13 10:54:29;;;;;;;;;;;15.00;99.90;;;;;;4882134;29;1278;-59
2023/03/13 10:57:14;;;;;;;;;;;14.90;99.90;;;;;;4914171;29;1248;-59
2023/03/13 10:59:42;;;;;;;;;;;15.00;99.90;;;;;;4916823;29;1176;-59
2023/03/13 11:02:18;;;;;;;;;;;15.10;99.90;;;;;;4913441;29;1157;-61
2023/03/13 11:04:48;;;;;;;;;;;15.10;99.90;;;;;;4898274;29;1008;-59
2023/03/13 11:07:15;;;;;;;;;;;15.10;99.90;;;;;;4898006;29;901;-59
2023/03/13 11:09:41;;;;;;;;;;;15.20;99.90;;;;;;4898320;29;989;-59
2023/03/13 11:12:16;;;;;;;;;;;15.40;99.90;;;;;;4901554;29;1126;-61
2023/03/13 11:14:43;;;;;;;;;;;15.60;99.90;;;;;;4917010;29;956;-60
2023/03/13 11:17:23;;;;;;;;;;;15.70;99.90;;;;;;4901677;29;1962;-61
2023/03/13 11:19:49;;;;;;;;;;;15.80;99.90;;;;;;4898014;29;993;-60
2023/03/13 11:22:25;;;;;;;;;;;16.00;99.90;;;;;;4902192;29;1153;-61
2023/03/13 11:25:10;;;;;;;;;;;16.20;99.90;;;;;;4916935;29;1075;-61
2023/03/13 11:27:39;;;;;;;;;;;16.30;99.90;;;;;;4900267;29;1213;-59
2023/03/13 11:30:24;;;;;;;;;;;16.30;99.90;;;;;;4900194;29;1592;-61
2023/03/13 11:33:01;;;;;;;;;;;16.40;99.90;;;;;;4908133;29;1141;-59
2023/03/13 11:35:47;;;;;;;;;;;16.50;99.90;;;;;;4897886;29;1037;-59
2023/03/13 11:38:23;;;;;;;;;;;16.40;99.90;;;;;;4897897;29;1903;-59
2023/03/13 11:41:15;;;;;;;;;;;16.40;99.90;;;;;;4898074;29;780;-60
2023/03/13 11:43:49;;;;;;;;;;;16.40;99.90;;;;;;4893044;29;1825;-59
2023/03/13 11:46:24;;;;;;;;;;;16.50;99.90;;;;;;4917103;29;934;-61
2023/03/13 11:49:06;;;;;;;;;;;16.40;99.90;;;;;;4915981;29;1288;-59
2023/03/13 11:51:45;;;;;;;;;;;16.30;99.90;;;;;;4916866;29;805;-59
2023/03/13 11:54:24;;;;;;;;;;;16.40;99.90;;;;;;4882051;29;1263;-61
2023/03/13 11:56:58;;;;;;;;;;;16.50;99.90;;;;;;4911551;29;1281;-59
2023/03/13 11:59:47;;;;;;;;;;;16.50;99.90;;;;;;4920281;29;1972;-62
2023/03/13 12:02:25;;;;;;;;;;;16.50;99.90;;;;;;4880699;29;1140;-60
2023/03/13 12:04:54;;;;;;;;;;;16.40;99.90;;;;;;4901367;29;1043;-62
2023/03/13 12:07:25;;;;;;;;;;;16.40;99.90;;;;;;4901825;29;1232;-59
2023/03/13 12:09:57;;;;;;;;;;;16.40;99.90;;;;;;4908155;29;1258;-60
2023/03/13 12:12:23;;;;;;;;;;;16.40;99.90;;;;;;4906633;29;1752;-60
2023/03/13 12:14:56;;;;;;;;;;;16.50;99.90;;;;;;4901108;29;1012;-61
2023/03/13 12:17:30;;;;;;;;;;;16.50;99.90;;;;;;4900727;29;1903;-61
2023/03/13 12:20:08;;;;;;;;;;;16.50;99.90;;;;;;4901139;29;941;-61
2023/03/13 12:22:41;;;;;;;;;;;16.60;99.90;;;;;;4907303;29;1118;-62
2023/03/13 12:25:28;;;;;;;;;;;16.60;99.90;;;;;;4920122;29;1015;-61
2023/03/13 12:28:00;;;;;;;;;;;16.50;99.90;;;;;;4919445;29;1376;-61
2023/03/13 12:30:32;;;;;;;;;;;16.40;99.90;;;;;;4919946;29;1042;-61
2023/03/13 12:33:17;;;;;;;;;;;16.40;99.90;;;;;;4910386;29;1130;-61
2023/03/13 12:35:46;;;;;;;;;;;16.30;99.90;;;;;;4900995;29;913;-60
2023/03/13 12:38:23;;;;;;;;;;;16.30;99.90;;;;;;4900339;29;1962;-59
2023/03/13 12:40:56;;;;;;;;;;;16.30;99.90;;;;;;4900226;29;1044;-61
2023/03/13 12:43:25;;;;;;;;;;;16.20;99.90;;;;;;4900021;29;1353;-61
2023/03/13 12:45:57;;;;;;;;;;;16.10;99.90;;;;;;4900627;29;1051;-62
2023/03/13 12:48:42;;;;;;;;;;;16.00;99.90;;;;;;4900412;29;913;-62
2023/03/13 12:51:27;;;;;;;;;;;15.90;99.90;;;;;;4899906;29;828;-62
2023/03/13 12:54:11;;;;;;;;;;;15.90;99.90;;;;;;4917109;29;1161;-59
2023/03/13 12:56:56;;;;;;;;;;;16.00;99.90;;;;;;4904343;29;1086;-63
2023/03/13 12:59:26;;;;;;;;;;;16.10;99.90;;;;;;4900463;29;1899;-60
2023/03/13 13:01:54;;;;;;;;;;;16.20;99.90;;;;;;4900341;29;1126;-60
2023/03/13 13:04:25;;;;;;;;;;;16.20;99.90;;;;;;4902371;29;894;-62
2023/03/13 13:07:05;;;;;;;;;;;16.30;99.90;;;;;;4901968;29;981;-61
2023/03/13 13:09:32;;;;;;;;;;;16.30;99.90;;;;;;4919324;29;921;-61
2023/03/13 13:11:59;;;;;;;;;;;16.30;99.90;;;;;;4917621;29;1164;-62
2023/03/13 13:14:25;;;;;;;;;;;16.30;99.90;;;;;;4900405;29;925;-59
2023/03/13 13:17:22;;;;;;;;;;;16.30;99.90;;;;;;4899602;29;1020;-62
2023/03/13 13:19:49;;;;;;;;;;;16.20;99.90;;;;;;4884615;29;1904;-62
2023/03/13 13:22:36;;;;;;;;;;;16.10;99.90;;;;;;4903046;29;1149;-59
2023/03/13 13:25:09;;;;;;;;;;;16.00;99.90;;;;;;4919046;29;1023;-59
2023/03/13 13:27:35;;;;;;;;;;;15.80;99.90;;;;;;4918275;29;1052;-62
2023/03/13 13:30:03;;;;;;;;;;;15.70;99.90;;;;;;4918590;29;1062;-61
2023/03/13 13:32:39;;;;;;;;;;;15.70;99.90;;;;;;4913317;29;1113;-61
2023/03/13 13:35:08;;;;;;;;;;;15.70;99.90;;;;;;4883596;29;870;-59
2023/03/13 13:37:35;;;;;;;;;;;15.90;99.90;;;;;;4882939;29;1032;-59
2023/03/13 13:40:19;;;;;;;;;;;16.00;99.90;;;;;;4882815;29;1910;-61
2023/03/13 13:42:50;;;;;;;;;;;16.00;99.90;;;;;;4906651;29;1161;-60
2023/03/13 13:45:16;;;;;;;;;;;16.10;99.90;;;;;;4901797;29;1418;-60
2023/03/13 13:47:44;;;;;;;;;;;16.10;99.90;;;;;;4917979;29;1000;-58
2023/03/13 13:50:16;;;;;;;;;;;16.10;99.90;;;;;;4918058;29;1112;-61
2023/03/13 13:52:42;;;;;;;;;;;16.10;99.90;;;;;;4911804;29;1105;-60
2023/03/13 13:55:29;;;;;;;;;;;16.10;99.90;;;;;;4901687;29;1154;-62
2023/03/13 13:58:03;;;;;;;;;;;16.10;99.90;;;;;;4917905;29;1911;-62
2023/03/13 14:00:39;;;;;;;;;;;16.10;99.90;;;;;;4917661;29;1153;-61
2023/03/13 14:03:22;;;;;;;;;;;16.10;99.90;;;;;;4908449;29;1133;-59
2023/03/13 14:05:50;;;;;;;;;;;16.00;99.90;;;;;;4882838;29;1258;-62
2023/03/13 14:08:24;;;;;;;;;;;15.90;99.90;;;;;;4882249;29;1001;-60
2023/03/13 14:10:54;;;;;;;;;;;15.90;99.90;;;;;;4899126;29;1005;-61
2023/03/13 14:13:23;;;;;;;;;;;15.90;99.90;;;;;;4910250;29;1126;-60
2023/03/13 14:15:53;;;;;;;;;;;15.80;99.90;;;;;;4918126;29;993;-62
2023/03/13 14:18:19;;;;;;;;;;;15.80;99.90;;;;;;4916683;29;1899;-61
2023/03/13 14:20:55;;;;;;;;;;;15.90;99.90;;;;;;4917770;29;987;-59
2023/03/13 14:23:33;;;;;;;;;;;15.90;99.90;;;;;;4906355;29;1113;-61
2023/03/13 14:26:09;;;;;;;;;;;15.80;99.90;;;;;;4898897;29;980;-61
2023/03/13 14:28:37;;;;;;;;;;;15.70;99.90;;;;;;4898228;29;1722;-59
2023/03/13 14:31:03;;;;;;;;;;;15.70;99.90;;;;;;4898671;29;857;-59
2023/03/13 14:33:29;;;;;;;;;;;15.70;99.90;;;;;;4903140;29;1082;-61
2023/03/13 14:35:56;;;;;;;;;;;15.70;99.90;;;;;;4898571;29;802;-59
2023/03/13 14:38:23;;;;;;;;;;;15.60;99.90;;;;;;4898225;29;1898;-62
2023/03/13 14:40:50;;;;;;;;;;;15.70;99.90;;;;;;4898720;29;766;-61
2023/03/13 14:43:20;;;;;;;;;;;15.70;99.90;;;;;;4892312;29;1153;-58
2023/03/13 14:45:47;;;;;;;;;;;15.70;99.90;;;;;;4900729;29;1206;-61